Main page
METAR-TAF:

METAR-TAF

Airports :

Kuwait International Airport

Kuwait City, Kuwait

latitude: 29-13N, longitude: 047-59E, elevation: 55 m

Current weather observation

The report was made 45 minutes ago, at 01:00 UTC
Wind 3 kt from the East/Southeast
Temperature 17°C
Humidity 82%
Pressure 1016 hPa
Visibility: 7000 m

METAR: OKBK 180100Z 11003KT 7000 NSC 17/14 Q1016 NOSIG

Time: 04:45 (01:45 UTC)

Forecast

The report was made 3 hours and 0 minutes ago, at 22:45 UTC
Forecast valid from 18 at 00 UTC to 19 at 06 UTC
Wind 10 kt from the South/Southeast
Visibility: 7000 m
Few clouds at a height of 4000 ft
Broken clouds at a height of 8000 ft
Temporary
from 18 at 00 UTC to 18 at 06 UTC
Wind 3 kt from variable directions
Visibility: 3000 m

TAF: OKBK 172245Z 1800/1906 15010KT 7000 FEW040 BKN080 TEMPO 1800/1806 VRB03KT 3000 -RA/BR

Weather observations and forecasts of more than 4000 airports (METAR and TAF reports).

The available stations are represented by yellow and red dots on the map.

Hover mouse over dot to see the name of the station.

Then click to see weather observations and forecasts.

To change the map : click on the green buttons with a black cross to zoom in, on the green button with a dash to zoom out, or on the green arrows for adjacent maps.


METAR-TAF: